Tropical Cyclones
[Index]
Main Index Home Page Stock Weather Photos Extreme Storms Discussion Storm News and Storm Chasing Reports Tropical Cyclones / Hurricanes / Typhoons Weather Data and Links Wild Fires / Bushfires Weather Observation Techniques Weather Picture Catalogue Tornado Pictures and Reports Stock Video Footage and DVDs for sale
Season 2000-2001 Tropical Cyclone CHARLY Track Map
Season 2000-2001 Summaries (Operational Data): [AU] [SIO] [SPAC] [SH]
<<- Previous TC | 2000-2001 Season | Next TC ->>

click for intensity scale information  Lat/long Grid: Show Hide

 Date Labels: Show Hide

Operational Tropical Cyclone Data : JTWC Advisories

Name: CHARLY
Number: 0106

17 Jan 2001 18:00 UTC to 26 Jan 2001 12:00 UTC

    date/time    lat    long     hPa   cat  kts
2001-01-17 18   12.3    85.6    1000         25          
2001-01-18 06   12.6    86.5     999         25          
2001-01-18 12   13.3    86.1     999         25          
2001-01-18 18   13.5    85.8     998         30          
2001-01-19 00   13.6    85.5     998         30          
2001-01-19 06   13.8    83.9     998         30          
2001-01-19 12   14.2    84.4     995    1    35          
2001-01-19 18   14.6    83.3     990    1    40          
2001-01-20 00   15.3    82.7     986    1    45          
2001-01-20 06   16.1    82.3     978    2    55          
2001-01-20 12   16.4    81.4     975    2    60          
2001-01-20 18   16.8    80.7     972    2    60          
2001-01-21 00   17.4    79.4     972    2    60          
2001-01-21 06   17.4    78.3     972    2    60          
2001-01-21 12   17.5    77.2     968    3    65          
2001-01-21 18   17.9    76.2     958    3    80          
2001-01-22 00   18.0    74.9     954    3    80          
2001-01-22 06   18.3    74.0     948    3    85          
2001-01-22 12   18.8    73.0     928    4   100          
2001-01-22 18   19.3    72.0     925    4   105          
2001-01-23 00   20.1    71.1     925    4   105          
2001-01-23 06   20.7    70.0     925    4   105          
2001-01-23 12   21.6    69.0     945    3    85          
2001-01-23 18   22.2    67.7     958    3    75          
2001-01-24 00   22.7    66.5     972    2    60          
2001-01-24 06   22.6    64.4     980    2    55          
2001-01-24 12   22.7    62.7     984    2    50          
2001-01-24 18   23.2    61.9     984    2    50          
2001-01-25 00   23.9    60.0     984    2    50          
2001-01-25 00   24.5    59.0     990    1    40          
2001-01-25 12   25.0    58.2     995    1    35          
2001-01-25 18   25.3    57.5     998         30          
2001-01-26 00   25.5    57.0    1000         25          
2001-01-26 06   25.3    56.8    1000         25          
2001-01-26 12   25.7    57.1    1002         25          
Winds are 10-min average.

Tropical cyclone tracks developed by Michael Bath using operational warnings and advisories and Google Maps.


[Australian Severe Weather index] [Copyright Notice] [Email Contacts] [Search This Site] [Privacy Policy]
Document: tropical_cyclone_charly.htm Updated: 28 May 2013